General Aviation Weather

Text Reports

Enter one or more of the following location identifiers separated by a space:

Zip Code, Four-Character ICAO or Three-Character IATA airport codes.

METAR - Aviation Routine Weather Report
KFWN - Sussex, New Jersey
Updated at 7:53 AM GMT on August 01, 2015 (3:53 AM EDT):
METAR KFWN 010753Z AUTO 00000KT 10SM CLR 17/15 A2981 RMK AO2 SLP090 T01670150
TAF - Terminal Area Forecast
KFWN - Sussex, New Jersey
Updated at 7:53 AM GMT on August 01, 2015 (3:53 AM EDT):
No TAF is currently available for this location.
Decoded:
No decoded TAF is available.
PIREP - Pilot Weather Report
KFWN - Sussex, New Jersey
Updated at 7:53 AM GMT on August 01, 2015 (3:53 AM EDT):
No PIREP is currently available for this location.
AIRMET - Airmens Meteorological Information
KFWN - Sussex, New Jersey
Updated at 7:53 AM GMT on August 01, 2015 (3:53 AM EDT):
No AIRMET is currently available for this location.
SIGMET - Significant Meteorological Information
KFWN - Sussex, New Jersey
Updated at 7:53 AM GMT on August 01, 2015 (3:53 AM EDT):
No SIGMET is currently available for this location.
NOTAM - Notice to Airmen
KFWN - Sussex, New Jersey
Updated at 7:53 AM GMT on August 01, 2015 (3:53 AM EDT):
No NOTAM is currently available for this location.
Forecast Area
KFWN - Sussex, New Jersey
Updated at 7:53 AM GMT on August 01, 2015 (3:53 AM EDT):
No NOTAM is currently available for this location.
Aviation Weather Maps